sensor_id;sensor_type;location;lat;lon;timestamp;P1;P2;P0
76043;PMS7003;64740;34.694;33.088;2022-12-16T00:04:25;9.1;8.1;6.4
76043;PMS7003;64740;34.694;33.088;2022-12-16T00:09:45;8.3;7.8;6.2
76043;PMS7003;64740;34.694;33.088;2022-12-16T00:15:09;9.6;8.4;6.6
76043;PMS7003;64740;34.694;33.088;2022-12-16T00:19:33;9.2;8;6.4
76043;PMS7003;64740;34.694;33.088;2022-12-16T00:24:55;9.1;7.9;6.1
76043;PMS7003;64740;34.694;33.088;2022-12-16T00:29:57;8.9;7.6;6
76043;PMS7003;64740;34.694;33.088;2022-12-16T00:34:35;8.8;7.4;5.8
76043;PMS7003;64740;34.694;33.088;2022-12-16T00:40:07;6.7;6.2;5
76043;PMS7003;64740;34.694;33.088;2022-12-16T00:44:35;8.1;7;5.8
76043;PMS7003;64740;34.694;33.088;2022-12-16T00:49:55;7.5;7.2;5.6
76043;PMS7003;64740;34.694;33.088;2022-12-16T00:54:35;7.6;6.4;5.1
76043;PMS7003;64740;34.694;33.088;2022-12-16T00:59:33;8.1;7.3;5.6
76043;PMS7003;64740;34.694;33.088;2022-12-16T01:05:09;7.5;6.6;5.3
76043;PMS7003;64740;34.694;33.088;2022-12-16T01:09:35;8.1;6.8;5.6
76043;PMS7003;64740;34.694;33.088;2022-12-16T01:14:35;7.5;6.4;5
76043;PMS7003;64740;34.694;33.088;2022-12-16T01:19:59;8;7.3;5.6
76043;PMS7003;64740;34.694;33.088;2022-12-16T01:24:25;8.6;6.9;5.4
76043;PMS7003;64740;34.694;33.088;2022-12-16T01:30:15;8.2;7.4;5.7
76043;PMS7003;64740;34.694;33.088;2022-12-16T01:35:03;8.2;7.4;5.7
76043;PMS7003;64740;34.694;33.088;2022-12-16T01:39:59;7;6;4.6
76043;PMS7003;64740;34.694;33.088;2022-12-16T01:44:25;7.4;6.7;5.2
76043;PMS7003;64740;34.694;33.088;2022-12-16T01:49:53;6.2;5.9;4.9
76043;PMS7003;64740;34.694;33.088;2022-12-16T01:55:17;7.2;6.2;5
76043;PMS7003;64740;34.694;33.088;2022-12-16T01:59:37;7.2;6.2;5
76043;PMS7003;64740;34.694;33.088;2022-12-16T02:04:25;7.8;6.6;5.2
76043;PMS7003;64740;34.694;33.088;2022-12-16T02:10:03;8;7.5;5.9
76043;PMS7003;64740;34.694;33.088;2022-12-16T02:15:06;8.3;7;5.7
76043;PMS7003;64740;34.694;33.088;2022-12-16T02:20:21;7.8;6.5;4.8
76043;PMS7003;64740;34.694;33.088;2022-12-16T02:25:46;7.8;6.5;4.8
76043;PMS7003;64740;34.694;33.088;2022-12-16T02:30:03;7.8;6.4;5.1
76043;PMS7003;64740;34.694;33.088;2022-12-16T02:34:50;7.7;6.5;5.1
76043;PMS7003;64740;34.694;33.088;2022-12-16T02:39:49;7.9;6.7;5.1
76043;PMS7003;64740;34.694;33.088;2022-12-16T02:45:12;7.7;6.4;5
76043;PMS7003;64740;34.694;33.088;2022-12-16T02:49:42;7.7;6.4;5
76043;PMS7003;64740;34.694;33.088;2022-12-16T02:54:25;7.6;6.3;5
76043;PMS7003;64740;34.694;33.088;2022-12-16T03:00:00;7.3;6.1;4.8
76043;PMS7003;64740;34.694;33.088;2022-12-16T03:04:37;8;6.3;5
76043;PMS7003;64740;34.694;33.088;2022-12-16T03:10:14;8;6.6;5.3
76043;PMS7003;64740;34.694;33.088;2022-12-16T03:15:03;8;6.6;5.3
76043;PMS7003;64740;34.694;33.088;2022-12-16T03:20:02;7.5;6.6;5.1
76043;PMS7003;64740;34.694;33.088;2022-12-16T03:24:47;6.9;5.9;4.9
76043;PMS7003;64740;34.694;33.088;2022-12-16T03:29:51;7.4;7.1;5.7
76043;PMS7003;64740;34.694;33.088;2022-12-16T03:35:14;8.3;7.1;5.5
76043;PMS7003;64740;34.694;33.088;2022-12-16T03:39:25;8.3;7.1;5.5
76043;PMS7003;64740;34.694;33.088;2022-12-16T03:44:47;8.6;7.4;5.6
76043;PMS7003;64740;34.694;33.088;2022-12-16T03:49:59;8.2;6.7;5.4
76043;PMS7003;64740;34.694;33.088;2022-12-16T03:54:37;7.4;6.7;5.3
76043;PMS7003;64740;34.694;33.088;2022-12-16T04:00:13;8.5;7.1;5.6
76043;PMS7003;64740;34.694;33.088;2022-12-16T04:05:03;8.5;7.1;5.6
76043;PMS7003;64740;34.694;33.088;2022-12-16T04:09:49;7.7;6.4;5.1
76043;PMS7003;64740;34.694;33.088;2022-12-16T04:14:37;7;6.4;4.9
76043;PMS7003;64740;34.694;33.088;2022-12-16T04:20:13;8.1;6.3;5
76043;PMS7003;64740;34.694;33.088;2022-12-16T04:25:16;9.7;6.9;5.7
76043;PMS7003;64740;34.694;33.088;2022-12-16T04:29:37;9.7;6.9;5.7
76043;PMS7003;64740;34.694;33.088;2022-12-16T04:34:49;8.4;7.2;5.8
76043;PMS7003;64740;34.694;33.088;2022-12-16T04:40:01;7.9;7.6;5.8
76043;PMS7003;64740;34.694;33.088;2022-12-16T04:44:49;9.6;8;6.1
76043;PMS7003;64740;34.694;33.088;2022-12-16T04:50:03;10.7;8.3;6.2
76043;PMS7003;64740;34.694;33.088;2022-12-16T04:55:03;10.5;8.9;6.7
76043;PMS7003;64740;34.694;33.088;2022-12-16T04:59:49;9.8;8.7;7
76043;PMS7003;64740;34.694;33.088;2022-12-16T05:04:47;10.4;8.7;6.9
76043;PMS7003;64740;34.694;33.088;2022-12-16T05:10:11;9.3;7.9;5.6
76043;PMS7003;64740;34.694;33.088;2022-12-16T05:15:13;9.3;7.6;6.1
76043;PMS7003;64740;34.694;33.088;2022-12-16T05:19:37;9.3;7.6;6.1
76043;PMS7003;64740;34.694;33.088;2022-12-16T05:24:47;9.5;7.7;5.8
76043;PMS7003;64740;34.694;33.088;2022-12-16T05:30:13;8.2;6.9;5.8
76043;PMS7003;64740;34.694;33.088;2022-12-16T05:34:25;8.2;6.9;5.8
76043;PMS7003;64740;34.694;33.088;2022-12-16T05:39:55;9.8;7.8;6.4
76043;PMS7003;64740;34.694;33.088;2022-12-16T05:45:03;10.4;8.8;6.5
76043;PMS7003;64740;34.694;33.088;2022-12-16T05:49:37;9.6;8;6.4
76043;PMS7003;64740;34.694;33.088;2022-12-16T05:54:25;10.3;8.4;6.7
76043;PMS7003;64740;34.694;33.088;2022-12-16T06:00:15;11.2;10.2;7.9
76043;PMS7003;64740;34.694;33.088;2022-12-16T06:05:15;12.6;11.2;8.6
76043;PMS7003;64740;34.694;33.088;2022-12-16T06:09:25;12.6;11.2;8.6
76043;PMS7003;64740;34.694;33.088;2022-12-16T06:14:47;12.2;11.6;8.9
76043;PMS7003;64740;34.694;33.088;2022-12-16T06:20:15;12.3;11;8.3
76043;PMS7003;64740;34.694;33.088;2022-12-16T06:24:49;12.3;11;8.3
76043;PMS7003;64740;34.694;33.088;2022-12-16T06:30:15;9.3;8.5;6.8
76043;PMS7003;64740;34.694;33.088;2022-12-16T06:35:01;9.3;8.5;6.8
76043;PMS7003;64740;34.694;33.088;2022-12-16T06:39:37;12.3;10.6;7.8
76043;PMS7003;64740;34.694;33.088;2022-12-16T06:44:25;12.3;11.3;8.9
76043;PMS7003;64740;34.694;33.088;2022-12-16T06:50:15;12.8;9.9;7.6
76043;PMS7003;64740;34.694;33.088;2022-12-16T06:55:13;12.4;10.9;8
76043;PMS7003;64740;34.694;33.088;2022-12-16T06:59:37;12.4;10.9;8
76043;PMS7003;64740;34.694;33.088;2022-12-16T07:04:49;14.5;12.7;9.9
76043;PMS7003;64740;34.694;33.088;2022-12-16T07:10:13;19.6;16;12.2
76043;PMS7003;64740;34.694;33.088;2022-12-16T07:14:37;19.6;16;12.2
76043;PMS7003;64740;34.694;33.088;2022-12-16T07:20:05;21;17.5;12.7
76043;PMS7003;64740;34.694;33.088;2022-12-16T07:25:03;20.1;18;13.3
76043;PMS7003;64740;34.694;33.088;2022-12-16T07:29:49;25.9;21;15.1
76043;PMS7003;64740;34.694;33.088;2022-12-16T07:34:37;23.9;21.4;14.5
76043;PMS7003;64740;34.694;33.088;2022-12-16T07:40:11;24.9;20.4;15
76043;PMS7003;64740;34.694;33.088;2022-12-16T07:44:45;24.9;20.4;15
76043;PMS7003;64740;34.694;33.088;2022-12-16T07:49:47;24.1;20.9;14.6
76043;PMS7003;64740;34.694;33.088;2022-12-16T07:54:47;25.3;20.9;14.2
76043;PMS7003;64740;34.694;33.088;2022-12-16T08:00:15;19.5;17.1;12.2
76043;PMS7003;64740;34.694;33.088;2022-12-16T08:04:37;19.5;17.1;12.2
76043;PMS7003;64740;34.694;33.088;2022-12-16T08:10:01;19.8;16.4;12.2
76043;PMS7003;64740;34.694;33.088;2022-12-16T08:15:01;19;16.7;11.4
76043;PMS7003;64740;34.694;33.088;2022-12-16T08:19:47;18.3;15.6;10.9
76043;PMS7003;64740;34.694;33.088;2022-12-16T08:24:37;20.1;17;12
76043;PMS7003;64740;34.694;33.088;2022-12-16T08:30:15;11.1;10.3;7.2
76043;PMS7003;64740;34.694;33.088;2022-12-16T08:35:03;11.1;10.3;7.2
76043;PMS7003;64740;34.694;33.088;2022-12-16T08:39:37;17.3;14.4;10.2
76043;PMS7003;64740;34.694;33.088;2022-12-16T08:44:47;17.1;15.1;10.6
76043;PMS7003;64740;34.694;33.088;2022-12-16T08:50:04;16.7;15;10.5
76043;PMS7003;64740;34.694;33.088;2022-12-16T08:55:01;17.3;13.8;10.2
76043;PMS7003;64740;34.694;33.088;2022-12-16T09:00:11;18.4;16;11.7
76043;PMS7003;64740;34.694;33.088;2022-12-16T09:05:15;21.2;18.6;13.1
76043;PMS7003;64740;34.694;33.088;2022-12-16T09:09:47;21.2;18.6;13.1
76043;PMS7003;64740;34.694;33.088;2022-12-16T09:14:25;23.1;19.6;14
76043;PMS7003;64740;34.694;33.088;2022-12-16T09:20:13;25.6;22.1;15.7
76043;PMS7003;64740;34.694;33.088;2022-12-16T09:25:05;25.6;22.1;15.7
76043;PMS7003;64740;34.694;33.088;2022-12-16T09:29:25;25.9;23.3;16
76043;PMS7003;64740;34.694;33.088;2022-12-16T09:34:35;26.9;23.3;17.3
76043;PMS7003;64740;34.694;33.088;2022-12-16T09:39:59;27.8;24.4;17.4
76043;PMS7003;64740;34.694;33.088;2022-12-16T09:45:07;27.2;23.7;16.5
76043;PMS7003;64740;34.694;33.088;2022-12-16T09:50:16;23.9;21;14.9
76043;PMS7003;64740;34.694;33.088;2022-12-16T09:55:16;25.5;21.5;15.3
76043;PMS7003;64740;34.694;33.088;2022-12-16T09:59:48;25.5;21.5;15.3
76043;PMS7003;64740;34.694;33.088;2022-12-16T10:04:37;24.6;21.7;15.3
76043;PMS7003;64740;34.694;33.088;2022-12-16T10:10:16;23.5;21.8;15.5
76043;PMS7003;64740;34.694;33.088;2022-12-16T10:15:09;23.5;21.8;15.5
76043;PMS7003;64740;34.694;33.088;2022-12-16T10:19:39;25.4;22.2;15.7
76043;PMS7003;64740;34.694;33.088;2022-12-16T10:24:50;25.1;21.9;15.5
76043;PMS7003;64740;34.694;33.088;2022-12-16T10:30:08;21.4;19.1;13.8
76043;PMS7003;64740;34.694;33.088;2022-12-16T10:34:53;22.1;19.5;13.7
76043;PMS7003;64740;34.694;33.088;2022-12-16T10:40:14;22.5;19.9;14
76043;PMS7003;64740;34.694;33.088;2022-12-16T10:45:16;22;18.9;13.1
76043;PMS7003;64740;34.694;33.088;2022-12-16T10:49:49;22;18.9;13.1
76043;PMS7003;64740;34.694;33.088;2022-12-16T10:54:27;20.3;18.4;13.8
76043;PMS7003;64740;34.694;33.088;2022-12-16T11:00:16;21.1;18.3;13.1
76043;PMS7003;64740;34.694;33.088;2022-12-16T11:05:07;21.1;18.3;13.1
76043;PMS7003;64740;34.694;33.088;2022-12-16T11:09:37;20;17.4;12.3
76043;PMS7003;64740;34.694;33.088;2022-12-16T11:14:50;16.7;14.2;9.8
76043;PMS7003;64740;34.694;33.088;2022-12-16T11:20:06;20;17.5;12.9
76043;PMS7003;64740;34.694;33.088;2022-12-16T11:25:04;21.3;17.8;13.2
76043;PMS7003;64740;34.694;33.088;2022-12-16T11:30:16;22.7;19.9;14.5
76043;PMS7003;64740;34.694;33.088;2022-12-16T11:35:14;21.8;19.2;13.8
76043;PMS7003;64740;34.694;33.088;2022-12-16T11:39:49;21.8;19.2;13.8
76043;PMS7003;64740;34.694;33.088;2022-12-16T11:44:50;20;17.5;12.5
76043;PMS7003;64740;34.694;33.088;2022-12-16T11:50:16;15.7;14.2;10.4
76043;PMS7003;64740;34.694;33.088;2022-12-16T11:55:06;15.7;14.2;10.4
76043;PMS7003;64740;34.694;33.088;2022-12-16T11:59:38;15.1;13.6;10
76043;PMS7003;64740;34.694;33.088;2022-12-16T12:04:47;16.1;14.3;10.6
76043;PMS7003;64740;34.694;33.088;2022-12-16T12:10:05;17.4;15.2;11
76043;PMS7003;64740;34.694;33.088;2022-12-16T12:14:52;19.5;16.9;11.8
76043;PMS7003;64740;34.694;33.088;2022-12-16T12:20:33;19.4;17.2;12.1
76043;PMS7003;64740;34.694;33.088;2022-12-16T12:25:15;20.2;17.6;12.9
76043;PMS7003;64740;34.694;33.088;2022-12-16T12:29:38;20.2;17.6;12.9
76043;PMS7003;64740;34.694;33.088;2022-12-16T12:34:27;19.4;16.5;12
76043;PMS7003;64740;34.694;33.088;2022-12-16T12:40:18;20;17;12.5
76043;PMS7003;64740;34.694;33.088;2022-12-16T12:45:08;20;17;12.5
76043;PMS7003;64740;34.694;33.088;2022-12-16T12:49:38;17.9;15.7;11.5
76043;PMS7003;64740;34.694;33.088;2022-12-16T12:54:50;17.2;14.8;10.8
76043;PMS7003;64740;34.694;33.088;2022-12-16T13:00:16;15.5;13;9.7
76043;PMS7003;64740;34.694;33.088;2022-12-16T13:05:15;17.4;15.1;11.7
76043;PMS7003;64740;34.694;33.088;2022-12-16T13:09:58;17.4;15.1;11.7
76043;PMS7003;64740;34.694;33.088;2022-12-16T13:15:01;18.1;15.5;11.4
76043;PMS7003;64740;34.694;33.088;2022-12-16T13:19:41;21.5;19.1;13
76043;PMS7003;64740;34.694;33.088;2022-12-16T13:24:39;21;18.6;13.3
76043;PMS7003;64740;34.694;33.088;2022-12-16T13:30:18;23.2;20.9;15.7
76043;PMS7003;64740;34.694;33.088;2022-12-16T13:34:26;23.2;20.9;15.7
76043;PMS7003;64740;34.694;33.088;2022-12-16T13:39:25;24.9;22.7;16.2
76043;PMS7003;64740;34.694;33.088;2022-12-16T13:45:07;26.6;24.3;16.7
76043;PMS7003;64740;34.694;33.088;2022-12-16T13:50:05;29.2;25.4;17.1
76043;PMS7003;64740;34.694;33.088;2022-12-16T13:55:16;26.5;23.2;16.5
76043;PMS7003;64740;34.694;33.088;2022-12-16T13:59:27;26.5;23.2;16.5
76043;PMS7003;64740;34.694;33.088;2022-12-16T14:04:52;22.2;19;13.7
76043;PMS7003;64740;34.694;33.088;2022-12-16T14:09:49;16.3;14.1;10
76043;PMS7003;64740;34.694;33.088;2022-12-16T14:14:25;15.9;12.9;9.5
76043;PMS7003;64740;34.694;33.088;2022-12-16T14:20:14;12;10.2;7
76043;PMS7003;64740;34.694;33.088;2022-12-16T14:24:51;12;10.2;7
76043;PMS7003;64740;34.694;33.088;2022-12-16T14:29:26;12.2;9.8;7.4
76043;PMS7003;64740;34.694;33.088;2022-12-16T14:35:17;11.8;10.2;7.6
76043;PMS7003;64740;34.694;33.088;2022-12-16T14:40:01;11.8;10.2;7.6
76043;PMS7003;64740;34.694;33.088;2022-12-16T14:45:19;11.5;9.8;7.2
76043;PMS7003;64740;34.694;33.088;2022-12-16T14:49:48;11.5;9.8;7.2
76043;PMS7003;64740;34.694;33.088;2022-12-16T14:54:24;13.3;10.5;8
76043;PMS7003;64740;34.694;33.088;2022-12-16T14:59:58;12.6;10.2;7.5
76043;PMS7003;64740;34.694;33.088;2022-12-16T15:04:23;12;10.1;7.3
76043;PMS7003;64740;34.694;33.088;2022-12-16T15:10:13;17.1;15.1;10.7
76043;PMS7003;64740;34.694;33.088;2022-12-16T15:14:52;17.1;15.1;10.7
76043;PMS7003;64740;34.694;33.088;2022-12-16T15:19:37;16.5;13.6;10.1
76043;PMS7003;64740;34.694;33.088;2022-12-16T15:24:59;19.1;16.1;11.6
76043;PMS7003;64740;34.694;33.088;2022-12-16T15:30:29;20.9;18.4;13.2
76043;PMS7003;64740;34.694;33.088;2022-12-16T15:35:23;25.5;22.5;16
76043;PMS7003;64740;34.694;33.088;2022-12-16T15:39:39;25.5;22.5;16
76043;PMS7003;64740;34.694;33.088;2022-12-16T15:44:51;26.5;23.9;16.2
76043;PMS7003;64740;34.694;33.088;2022-12-16T15:49:26;31;26.9;18.7
76043;PMS7003;64740;34.694;33.088;2022-12-16T15:54:47;38.3;31;20.6
76043;PMS7003;64740;34.694;33.088;2022-12-16T16:00:20;38.7;31.8;21.3
76043;PMS7003;64740;34.694;33.088;2022-12-16T16:04:47;38.7;31.8;21.3
76043;PMS7003;64740;34.694;33.088;2022-12-16T16:09:38;38.3;32.1;20.8
76043;PMS7003;64740;34.694;33.088;2022-12-16T16:15:03;39.3;31.6;21
76043;PMS7003;64740;34.694;33.088;2022-12-16T16:20:06;44.8;35.7;23.1
76043;PMS7003;64740;34.694;33.088;2022-12-16T16:25:13;44.7;36.4;24.1
76043;PMS7003;64740;34.694;33.088;2022-12-16T16:29:47;44.7;36.4;24.1
76043;PMS7003;64740;34.694;33.088;2022-12-16T16:34:50;46.5;37.2;24.5
76043;PMS7003;64740;34.694;33.088;2022-12-16T16:39:45;45;37.1;24.2
76043;PMS7003;64740;34.694;33.088;2022-12-16T16:44:37;46.9;37;24.4
76043;PMS7003;64740;34.694;33.088;2022-12-16T16:50:13;45.3;36.7;24.1
76043;PMS7003;64740;34.694;33.088;2022-12-16T16:54:51;45.3;36.7;24.1
76043;PMS7003;64740;34.694;33.088;2022-12-16T16:59:37;45.6;36.2;23.1
76043;PMS7003;64740;34.694;33.088;2022-12-16T17:04:25;46.8;37.9;24.1
76043;PMS7003;64740;34.694;33.088;2022-12-16T17:09:57;50.5;40.1;26.2
76043;PMS7003;64740;34.694;33.088;2022-12-16T17:15:16;50.5;39.6;26.1
76043;PMS7003;64740;34.694;33.088;2022-12-16T17:19:51;50.5;39.6;26.1
76043;PMS7003;64740;34.694;33.088;2022-12-16T17:24:51;50.1;39.4;25.5
76043;PMS7003;64740;34.694;33.088;2022-12-16T17:29:47;50.1;39.6;25.7
76043;PMS7003;64740;34.694;33.088;2022-12-16T17:34:35;52.3;40.8;26
76043;PMS7003;64740;34.694;33.088;2022-12-16T17:40:09;51.9;41.2;26.8
76043;PMS7003;64740;34.694;33.088;2022-12-16T17:44:35;51.1;41.2;26.5
76043;PMS7003;64740;34.694;33.088;2022-12-16T17:49:49;52.8;41.8;27.2
76043;PMS7003;64740;34.694;33.088;2022-12-16T17:54:59;54.1;42.6;27.6
76043;PMS7003;64740;34.694;33.088;2022-12-16T18:00:03;52.2;41.5;26.9
76043;PMS7003;64740;34.694;33.088;2022-12-16T18:05:13;52.5;41.2;26.6
76043;PMS7003;64740;34.694;33.088;2022-12-16T18:09:37;52.5;41.2;26.6
76043;PMS7003;64740;34.694;33.088;2022-12-16T18:15:01;49.3;39.5;25.6
76043;PMS7003;64740;34.694;33.088;2022-12-16T18:19:47;49.9;39.4;24.9
76043;PMS7003;64740;34.694;33.088;2022-12-16T18:24:39;52.2;40.8;26.2
76043;PMS7003;64740;34.694;33.088;2022-12-16T18:30:15;52.4;41.3;26.9
76043;PMS7003;64740;34.694;33.088;2022-12-16T18:34:52;52.4;41.3;26.9
76043;PMS7003;64740;34.694;33.088;2022-12-16T18:39:47;48.8;38.3;24.1
76043;PMS7003;64740;34.694;33.088;2022-12-16T18:44:57;45.2;36;23.3
76043;PMS7003;64740;34.694;33.088;2022-12-16T18:49:51;43.2;35.4;23.4
76043;PMS7003;64740;34.694;33.088;2022-12-16T18:55:09;45.6;36.7;24
76043;PMS7003;64740;34.694;33.088;2022-12-16T18:59:23;45.6;36.7;24
76043;PMS7003;64740;34.694;33.088;2022-12-16T19:04:45;46;36.5;23.5
76043;PMS7003;64740;34.694;33.088;2022-12-16T19:09:45;44;35.6;22.9
76043;PMS7003;64740;34.694;33.088;2022-12-16T19:14:23;46.2;36.6;23.5
76043;PMS7003;64740;34.694;33.088;2022-12-16T19:20:11;42.3;34.9;22.9
76043;PMS7003;64740;34.694;33.088;2022-12-16T19:24:37;42.3;34.9;22.9
76043;PMS7003;64740;34.694;33.088;2022-12-16T19:29:49;41.6;34.2;22.8
76043;PMS7003;64740;34.694;33.088;2022-12-16T19:34:59;40;34;22.3
76043;PMS7003;64740;34.694;33.088;2022-12-16T19:40:01;42.8;34.7;22.8
76043;PMS7003;64740;34.694;33.088;2022-12-16T19:45:15;41.4;33.7;22.4
76043;PMS7003;64740;34.694;33.088;2022-12-16T19:49:37;41.4;33.7;22.4
76043;PMS7003;64740;34.694;33.088;2022-12-16T19:54:59;39.6;32.4;21.8
76043;PMS7003;64740;34.694;33.088;2022-12-16T19:59:49;39;32.5;22.1
76043;PMS7003;64740;34.694;33.088;2022-12-16T20:04:49;38.4;32.6;21.4
76043;PMS7003;64740;34.694;33.088;2022-12-16T20:09:59;41.5;33.9;22.2
76043;PMS7003;64740;34.694;33.088;2022-12-16T20:14:51;39.2;32.9;21.4
76043;PMS7003;64740;34.694;33.088;2022-12-16T20:19:49;38.1;32.3;21.8
76043;PMS7003;64740;34.694;33.088;2022-12-16T20:24:57;40.9;32.4;21.9
76043;PMS7003;64740;34.694;33.088;2022-12-16T20:30:04;39.8;32.7;21.5
76043;PMS7003;64740;34.694;33.088;2022-12-16T20:35:11;41.9;33.3;21.8
76043;PMS7003;64740;34.694;33.088;2022-12-16T20:39:25;41.9;33.3;21.8
76043;PMS7003;64740;34.694;33.088;2022-12-16T20:45:01;39.8;32.7;21.7
76043;PMS7003;64740;34.694;33.088;2022-12-16T20:50:04;39.3;32.2;21.5
76043;PMS7003;64740;34.694;33.088;2022-12-16T20:54:39;38.3;31.8;21.5
76043;PMS7003;64740;34.694;33.088;2022-12-16T21:00:13;35;28.1;18.6
76043;PMS7003;64740;34.694;33.088;2022-12-16T21:04:53;35;28.1;18.6
76043;PMS7003;64740;34.694;33.088;2022-12-16T21:09:49;38.9;32.6;21.6
76043;PMS7003;64740;34.694;33.088;2022-12-16T21:14:59;36.6;31.1;20.8
76043;PMS7003;64740;34.694;33.088;2022-12-16T21:20:04;37.5;31.6;21
76043;PMS7003;64740;34.694;33.088;2022-12-16T21:25:13;33.7;27.2;17
76043;PMS7003;64740;34.694;33.088;2022-12-16T21:29:37;33.7;27.2;17
76043;PMS7003;64740;34.694;33.088;2022-12-16T21:35:13;34.7;29.7;20.1
76043;PMS7003;64740;34.694;33.088;2022-12-16T21:39:45;34.7;29.7;20.1
76043;PMS7003;64740;34.694;33.088;2022-12-16T21:44:37;36.6;30.9;20.7
76043;PMS7003;64740;34.694;33.088;2022-12-16T21:50:13;35.1;29.8;20.1
76043;PMS7003;64740;34.694;33.088;2022-12-16T21:54:47;35.1;29.8;20.1
76043;PMS7003;64740;34.694;33.088;2022-12-16T22:00:12;34.5;30.1;20.4
76043;PMS7003;64740;34.694;33.088;2022-12-16T22:04:25;34.5;30.1;20.4
76043;PMS7003;64740;34.694;33.088;2022-12-16T22:10:02;36.3;30.7;20.4
76043;PMS7003;64740;34.694;33.088;2022-12-16T22:14:49;34.1;30.2;19.8
76043;PMS7003;64740;34.694;33.088;2022-12-16T22:19:33;34.2;29.4;20
76043;PMS7003;64740;34.694;33.088;2022-12-16T22:25:09;34.1;29.3;19.9
76043;PMS7003;64740;34.694;33.088;2022-12-16T22:29:41;34.1;29.3;19.9
76043;PMS7003;64740;34.694;33.088;2022-12-16T22:34:25;34.5;30.1;19.7
76043;PMS7003;64740;34.694;33.088;2022-12-16T22:39:35;34.2;29.5;19.7
76043;PMS7003;64740;34.694;33.088;2022-12-16T22:44:45;35.2;29.6;19.2
76043;PMS7003;64740;34.694;33.088;2022-12-16T22:50:11;32.7;27.8;18.4
76043;PMS7003;64740;34.694;33.088;2022-12-16T22:54:25;32.7;27.8;18.4
76043;PMS7003;64740;34.694;33.088;2022-12-16T22:59:59;33;29;19.5
76043;PMS7003;64740;34.694;33.088;2022-12-16T23:04:55;32.9;27.8;18.1
76043;PMS7003;64740;34.694;33.088;2022-12-16T23:09:25;34.3;27.7;19.3
76043;PMS7003;64740;34.694;33.088;2022-12-16T23:15:10;29.9;27.1;18.3
76043;PMS7003;64740;34.694;33.088;2022-12-16T23:20:02;29.9;27.1;18.3
76043;PMS7003;64740;34.694;33.088;2022-12-16T23:24:25;32.4;27.5;18.6
76043;PMS7003;64740;34.694;33.088;2022-12-16T23:29:43;32;29;19.6
76043;PMS7003;64740;34.694;33.088;2022-12-16T23:34:49;30.8;27.7;19
76043;PMS7003;64740;34.694;33.088;2022-12-16T23:40:08;31.7;27.2;18.5
76043;PMS7003;64740;34.694;33.088;2022-12-16T23:44:33;30.8;27.1;18.5
76043;PMS7003;64740;34.694;33.088;2022-12-16T23:50:02;29.2;26.2;17.7
76043;PMS7003;64740;34.694;33.088;2022-12-16T23:54:55;28.8;25.2;17.9
76043;PMS7003;64740;34.694;33.088;2022-12-16T23:59:25;30.4;26.6;17.6
